TFM - Tactical Decision Aid
ID: Runway Winds: CIG/VIS Threshold:

KJFK - New York/Kennedy Int, NY, US

Updated at: 1819 UTC 19 Aug 2019
Latest TAF at: 1721 UTC 19 Aug 2019

TAF Board

Time1751Z 19/19Z 19/20Z 19/21Z 19/22Z 19/23Z 20/00Z 20/01Z 20/02Z 20/03Z 20/04Z 20/05Z 20/06Z 20/07Z>>
Type OBS PRVL PRVL
  [TEMP]  
PRVL
  [TEMP]  
PRVL
  [TEMP]  
PRVL
  [TEMP]  
PRVL PRVL PRVL PRVL PRVL PRVL PRVL PRVL
VIS 10 >6 >6
  [2]  
>6
  [2]  
>6
  [2]  
>6
  [2]  
>6 >6 >6 >6 >6 >6 >6 >6
CIG -- -- --
  [40]  
--
  [40]  
--
  [40]  
--
  [40]  
-- -- -- -- -- -- -- --
Cover FEW SCT SCT
  [BKN]  
SCT
  [BKN]  
SCT
  [BKN]  
SCT
  [BKN]  
SCT SCT SCT SCT SCT FEW FEW FEW
FltCat VFR VFR VFR
  [IFR]  
VFR
  [IFR]  
VFR
  [IFR]  
VFR
  [IFR]  
VFR VFR VFR VFR VFR VFR VFR VFR
WX -- -- VCTS
  [TSRA]  
VCTS
  [TSRA]  
VCTS
  [TSRA]  
VCTS
  [TSRA]  
-- -- -- -- -- -- -- --
WDir 170 180 190
[270]
190
[270]
190
[270]
190
[270]
230 230 230 230 230 310 310 360
WSpd 7 9 10
  [20]  
10
  [20]  
10
  [20]  
10
  [20]  
7 7 7 7 7 5 5 6
WGst -- -- --
  [35]  
--
  [35]  
--
  [35]  
--
  [35]  
-- -- -- -- -- -- -- --

TDA Impact Legend

  None Marginal Slight Moderate High
Visibility (sm) >5 3≤X≤5 1≤X<3 0.5≤X<1 <0.5
Ceiling (100 ft) >30 10≤X≤30 4≤X<10 2≤X<4 <2
Wind Speed (kt) <15 15≤X<25 25≤X<30 ≥30
Wind Gust (kt) <15 15≤X<25 25≤X<35 ≥35
Weather No Wx Reported VCTS -TS,-FZRA TS,FZRA +TS,+FZRA
TAF
KJFK 191721Z 1918/2024 18009KT P6SM SCT040
  FM192000 19010KT P6SM VCTS SCT040CB SCT100 SCT250
  TEMPO 1920/1924 27020G35KT 2SM TSRA BKN040CB
  FM200000 23007KT P6SM SCT040
  FM200500 31005KT P6SM FEW040
  FM200700 36006KT P6SM FEW040
  FM201000 03006KT P6SM FEW040
  FM201600 VRB05KT P6SM SCT040
  FM201800 16008KT P6SM SCT040


METAR
KJFK 191751Z 17007KT 10SM FEW033 FEW250 29/26 A2998 RMK AO2 SLP153 CB DSNT SW T02890256 10289 20244 58004 $
KJFK 191651Z 18011KT 10SM FEW009 FEW027 FEW250 29/25 A3000 RMK AO2 SLP157 TCU DSNT SW T02890250
KJFK 191551Z 19008KT 10SM FEW008 FEW023 SCT160 28/25 A3000 RMK AO2 SLP157 T02830250
KJFK 191451Z 19007KT 8SM FEW008 SCT160 SCT250 27/25 A3000 RMK AO2 SLP157 T02670250 58001

Radar Display
Forecast Discussion